Flight Track Log - Related Links

Times and Time Zones

All times are in EDT time to prevent confusion due to time zone crossing. See the SWA16 flight status page for this flight to view local times or setup timezone preferences in your user account.

Time Position Orientation Groundspeed Altitude Reporting Facility
EDT Latitude Longitude Course Direction KTS MPH feet Rate Location/Type
Fri 12:42:16 PM 32.7833 -96.7667 140° Southeast 204 235 4,500  Level Dallas / Fort Worth TRACON
Fri 12:43:16 PM 32.7333 -96.8000 209° Southwest 189 217 8,100 2,750 Climbing Dallas / Fort Worth TRACON
Fri 12:44:16 PM 32.6833 -96.8167 196° South 224 258 10,000 1,632 Climbing Dallas / Fort Worth TRACON
Fri 12:45:10 PM 32.6500 -96.9000 245° Southwest 320 368 11,200 2,689 Climbing Dallas / Fort Worth TRACON
Fri 12:47:19 PM 32.7494 -97.1219 298° West 387 445 18,200 3,206 Climbing Fort Worth Center
Fri 12:48:19 PM 32.8061 -97.2231 304° West 387 445 21,300 2,750 Climbing Fort Worth Center
Fri 12:49:19 PM 32.8583 -97.3219 302° West 382 440 23,700 2,300 Climbing Fort Worth Center
Fri 12:50:19 PM 32.9272 -97.4406 305° West 395 455 25,900 2,000 Climbing Fort Worth Center
Fri 12:51:19 PM 32.9897 -97.5547 303° West 407 468 27,700 1,750 Climbing Fort Worth Center
Fri 12:52:19 PM 33.0564 -97.6736 304° West 419 482 29,400 2,150 Climbing Fort Worth Center
Fri 12:53:19 PM 33.1103 -97.7953 298° West 425 489 32,000 2,550 Climbing Fort Worth Center
Fri 12:54:19 PM 33.1497 -97.9197 291° West 410 472 34,500 2,300 Climbing Fort Worth Center
Fri 12:55:19 PM 33.1886 -98.0389 291° West 391 450 36,600 1,750 Climbing Fort Worth Center
Fri 12:56:19 PM 33.2425 -98.1461 301° West 373 429 38,000 700 Climbing Fort Worth Center
Fri 12:57:19 PM 33.2961 -98.2336 306° West 379 436 38,000  Level Fort Worth Center
Fri 12:58:19 PM 33.3664 -98.3486 306° West 379 436 38,000  Level Fort Worth Center
Fri 12:59:19 PM 33.4219 -98.4414 306° West 384 442 38,000  Level Fort Worth Center
Fri 01:00:19 PM 33.4836 -98.5417 306° West 384 442 38,000  Level Fort Worth Center
Fri 01:01:19 PM 33.5475 -98.6447 307° West 384 442 38,000  Level Fort Worth Center
Fri 01:02:19 PM 33.6111 -98.7503 306° West 396 456 38,000  Level Fort Worth Center
Fri 01:03:19 PM 33.6703 -98.8561 304° West 384 442 38,000  Level Fort Worth Center
Fri 01:04:19 PM 33.7419 -98.9697 307° West 384 442 38,000  Level Fort Worth Center
Fri 01:05:19 PM 33.7992 -99.0731 304° West 383 441 38,000  Level Fort Worth Center
Fri 01:06:19 PM 33.8500 -99.1642 304° West 383 441 38,000  Level Fort Worth Center
Fri 01:07:19 PM 33.9111 -99.2731 304° West 382 440 38,000  Level Fort Worth Center
Fri 01:08:19 PM 33.9719 -99.3819 304° West 382 440 38,000  Level Fort Worth Center
Fri 01:09:19 PM 34.0308 -99.4836 305° West 382 440 38,000  Level Fort Worth Center
Fri 01:10:19 PM 34.0917 -99.5928 304° West 387 445 38,000  Level Fort Worth Center
Fri 01:11:19 PM 34.1522 -99.7022 304° West 387 445 38,000  Level Fort Worth Center
Fri 01:13:04 PM 34.2603 -99.8994 304° West 388 447 38,000  Level Albuquerque Center
Fri 01:14:06 PM 34.3208 -100.0083 304° West 388 447 38,000 -1,113 Level Albuquerque Center
Fri 01:15:08 PM 34.3867 -100.1250 304° West 385 443 35,700 -2,516 Descending Albuquerque Center
Fri 01:16:10 PM 34.4450 -100.2317 304° West 382 440 32,800 -2,516 Descending Albuquerque Center
Fri 01:17:12 PM 34.5050 -100.3422 303° West 389 448 30,500 -2,177 Descending Albuquerque Center
Fri 01:18:14 PM 34.5642 -100.4500 304° West 387 445 28,300 -2,129 Descending Albuquerque Center
Fri 01:19:16 PM 34.6225 -100.5542 304° West 379 436 26,100 -2,032 Descending Albuquerque Center
Fri 01:20:18 PM 34.6769 -100.6564 303° West 367 422 24,100 -2,177 Descending Albuquerque Center
Fri 01:21:20 PM 34.7414 -100.7753 303° West 354 407 21,600 -2,226 Descending Albuquerque Center
Fri 01:22:22 PM 34.7958 -100.8750 304° West 354 407 19,500 -1,887 Descending Albuquerque Center
Fri 01:23:24 PM 34.8475 -100.9700 304° West 343 395 17,700 -1,968 Descending Albuquerque Center
Fri 01:24:27 PM 34.8956 -101.0628 302° West 331 381 15,400 -2,592 Descending Albuquerque Center
Fri 01:25:29 PM 34.9428 -101.1589 301° West 329 379 12,300 -2,274 Descending Albuquerque Center
Fri 01:26:31 PM 34.9908 -101.2558 301° West 333 383 10,700 -1,500 Descending Albuquerque Center
Fri 01:27:33 PM 35.0394 -101.3553 301° West 296 341 9,200 -1,306 Descending Albuquerque Center
Fri 01:28:35 PM 35.0767 -101.4300 301° West 275 316 8,000 -919 Descending Albuquerque Center
Fri 01:29:37 PM 35.1075 -101.4925 301° West 238 274 7,300 -919 Descending Albuquerque Center
Fri 01:30:39 PM 35.1381 -101.5567 300° West 223 257 6,100 -1,065 Descending Albuquerque Center
Fri 01:31:41 PM 35.1642 -101.6103 301° West 202 232 5,100 -823 Descending Albuquerque Center
Fri 01:32:43 PM 35.1867 -101.6489 305° West 164 189 4,400 -726 Descending Albuquerque Center
Fri 01:33:45 PM 35.2161 -101.6808 318° Northwest 147 169 3,600 -774 Descending Albuquerque Center
Fri 01:35:00 PM 35.2167 -101.7000 219° Southwest  Level FlightAware Approximate

Login

Don't have an account? Register now (free) for customized features, flight alerts, and more!